AAL6BN KLAX-KSFO
Flight info
| Callsign | AAL6BN |
|---|---|
| Flight time | N/A |
| Altitude | 34000 |
| Route | SUMMR2 STOKD SERFR SERFR4 |
| Aircraft | B738/M-SDE2E3FGHIRWXY/LB1 |
Departure
| Time | 2026-04-24 21:21 |
|---|---|
| Airport | Los Angeles International Airport (KLAX) |
Arrival
| Time | N/A |
|---|---|
| Airport | San Francisco International Airport (KSFO) |
| Time | Latitude | Longitude | Altitude | Speed | Heading |
|---|---|---|---|---|---|
| 2026-04-24 20:52 | 33.94044 | -118.40498 | 122 ft | 0 kts | 83° |
| 2026-04-24 21:11 | 33.94043 | -118.40514 | 122 ft | 2 kts | 83° |
| 2026-04-24 21:11 | 33.94042 | -118.40532 | 122 ft | 2 kts | 101° |
| 2026-04-24 21:12 | 33.94047 | -118.40548 | 123 ft | 2 kts | 128° |
| 2026-04-24 21:12 | 33.94055 | -118.40557 | 123 ft | 2 kts | 147° |
| 2026-04-24 21:12 | 33.94068 | -118.40564 | 122 ft | 1 kts | 172° |
| 2026-04-24 21:12 | 33.94074 | -118.40564 | 122 ft | 0 kts | 173° |
| 2026-04-24 21:14 | 33.94032 | -118.40558 | 123 ft | 10 kts | 173° |
| 2026-04-24 21:14 | 33.93993 | -118.40552 | 123 ft | 0 kts | 173° |
| 2026-04-24 21:15 | 33.93984 | -118.40550 | 123 ft | 6 kts | 173° |
| 2026-04-24 21:15 | 33.93955 | -118.40546 | 123 ft | 12 kts | 173° |
| 2026-04-24 21:15 | 33.93863 | -118.40532 | 123 ft | 13 kts | 173° |
| 2026-04-24 21:16 | 33.93824 | -118.40496 | 122 ft | 9 kts | 92° |
| 2026-04-24 21:16 | 33.93840 | -118.40372 | 120 ft | 21 kts | 82° |
| 2026-04-24 21:16 | 33.93861 | -118.40179 | 119 ft | 24 kts | 84° |
| 2026-04-24 21:17 | 33.93880 | -118.39979 | 116 ft | 22 kts | 83° |
| 2026-04-24 21:17 | 33.93900 | -118.39777 | 112 ft | 26 kts | 83° |
| 2026-04-24 21:17 | 33.93923 | -118.39577 | 110 ft | 22 kts | 83° |
| 2026-04-24 21:17 | 33.93934 | -118.39466 | 109 ft | 17 kts | 84° |
| 2026-04-24 21:18 | 33.93951 | -118.39267 | 107 ft | 16 kts | 84° |
| 2026-04-24 21:18 | 33.93971 | -118.39117 | 106 ft | 20 kts | 83° |
| 2026-04-24 21:18 | 33.93990 | -118.38933 | 104 ft | 24 kts | 86° |
| 2026-04-24 21:18 | 33.94006 | -118.38722 | 104 ft | 26 kts | 84° |
| 2026-04-24 21:19 | 33.94030 | -118.38529 | 104 ft | 23 kts | 81° |
| 2026-04-24 21:19 | 33.94051 | -118.38335 | 101 ft | 22 kts | 85° |
| 2026-04-24 21:19 | 33.94066 | -118.38156 | 101 ft | 23 kts | 80° |
| 2026-04-24 21:19 | 33.94068 | -118.38020 | 101 ft | 14 kts | 135° |
| 2026-04-24 21:20 | 33.93973 | -118.38149 | 101 ft | 18 kts | 262° |
| 2026-04-24 21:20 | 33.93915 | -118.38667 | 104 ft | 104 kts | 263° |
| 2026-04-24 21:20 | 33.93794 | -118.39848 | 137 ft | 173 kts | 262° |
| 2026-04-24 21:21 | 33.93663 | -118.41206 | 1079 ft | 167 kts | 261° |
| 2026-04-24 21:21 | 33.93484 | -118.42625 | 1816 ft | 179 kts | 251° |
| 2026-04-24 21:21 | 33.92881 | -118.43882 | 2544 ft | 177 kts | 226° |
| 2026-04-24 21:21 | 33.92064 | -118.44991 | 3208 ft | 182 kts | 228° |
| 2026-04-24 21:22 | 33.91253 | -118.46172 | 3833 ft | 190 kts | 237° |
| 2026-04-24 21:22 | 33.90933 | -118.47750 | 4271 ft | 207 kts | 280° |
| 2026-04-24 21:22 | 33.91504 | -118.49404 | 4707 ft | 225 kts | 300° |
| 2026-04-24 21:22 | 33.91951 | -118.50584 | 4891 ft | 238 kts | 287° |
| 2026-04-24 21:23 | 33.92041 | -118.53346 | 5043 ft | 261 kts | 265° |
| 2026-04-24 21:23 | 33.91880 | -118.55595 | 5721 ft | 274 kts | 267° |
| 2026-04-24 21:23 | 33.91799 | -118.57856 | 6809 ft | 271 kts | 269° |
| 2026-04-24 21:23 | 33.91777 | -118.60114 | 7794 ft | 271 kts | 270° |
| 2026-04-24 21:24 | 33.91777 | -118.62371 | 8690 ft | 274 kts | 270° |
| 2026-04-24 21:24 | 33.91776 | -118.64656 | 9556 ft | 278 kts | 270° |
| 2026-04-24 21:24 | 33.91771 | -118.66968 | 10441 ft | 280 kts | 269° |
| 2026-04-24 21:24 | 33.91761 | -118.69366 | 11031 ft | 293 kts | 269° |
| 2026-04-24 21:25 | 33.91748 | -118.71859 | 11588 ft | 307 kts | 269° |
| 2026-04-24 21:25 | 33.91736 | -118.74515 | 12119 ft | 321 kts | 269° |
| 2026-04-24 21:25 | 33.91723 | -118.77238 | 12893 ft | 330 kts | 268° |
| 2026-04-24 21:25 | 33.91711 | -118.80009 | 13730 ft | 332 kts | 268° |
| 2026-04-24 21:26 | 33.91698 | -118.82755 | 14597 ft | 332 kts | 269° |
| 2026-04-24 21:26 | 33.91717 | -118.85530 | 15479 ft | 331 kts | 270° |
| 2026-04-24 21:26 | 33.91794 | -118.88303 | 16179 ft | 334 kts | 271° |
| 2026-04-24 21:26 | 33.91893 | -118.91083 | 16908 ft | 336 kts | 271° |
| 2026-04-24 21:27 | 33.91993 | -118.93910 | 17658 ft | 338 kts | 271° |
| 2026-04-24 21:27 | 33.92087 | -118.96719 | 18377 ft | 339 kts | 271° |
| 2026-04-24 21:27 | 33.92281 | -118.99546 | 19079 ft | 341 kts | 276° |
| 2026-04-24 21:27 | 33.92417 | -119.00490 | 19316 ft | 342 kts | 279° |
| 2026-04-24 21:28 | 33.93476 | -119.04082 | 20181 ft | 348 kts | 292° |
| 2026-04-24 21:28 | 33.94668 | -119.06632 | 20770 ft | 354 kts | 296° |
| 2026-04-24 21:28 | 33.95977 | -119.09148 | 21407 ft | 356 kts | 297° |
| 2026-04-24 21:28 | 33.97306 | -119.11641 | 22118 ft | 354 kts | 297° |
| 2026-04-24 21:29 | 33.98641 | -119.14155 | 22663 ft | 357 kts | 297° |
| 2026-04-24 21:29 | 34.00057 | -119.16627 | 23261 ft | 362 kts | 301° |
| 2026-04-24 21:29 | 34.01737 | -119.18932 | 23746 ft | 372 kts | 308° |
| 2026-04-24 21:29 | 34.03698 | -119.21023 | 24272 ft | 380 kts | 313° |
| 2026-04-24 21:30 | 34.05819 | -119.22955 | 24835 ft | 385 kts | 316° |
| 2026-04-24 21:30 | 34.08021 | -119.24840 | 25349 ft | 388 kts | 317° |
| 2026-04-24 21:30 | 34.10239 | -119.26708 | 25720 ft | 395 kts | 317° |